首页
METAR-TAF:

METAR-TAF

机场 :

Bella Bella, 不列颠哥伦比亚, 加拿大

纬度: 52-11-06N, 经度: 128-09-24W, 海拔: 43米

当前天气观测

该预报发布于26分钟前的13:00 UTC
风速2节,风向东转东南
温度 9°C
湿度 100%
气压 1018 hPa
能見度: 0.2公里

METAR: CBBC 221300Z AUTO 12002KT 1/8SM FG VV002 09/09 A3005 RMK SLP176

时间: 06:26 (13:26 UTC)

预报

该预报发布于48分钟前的12:38 UTC
预报有效从22日的 13点(UTC)到 23日的 01点(UTC)
风速3节,风向多变
能見度: 0.4公里
层高于200英尺
短暂存在
从 22日的 13点(UTC)到 22日的 18点(UTC)
能見度: 4.8公里
散云层高于300英尺
轻雾
从 22日的 1800点(UTC)
风速3节,风向多变
能見度: 10公里
少量云层高于500英尺
从 22日的 2200点(UTC)
风速5节,风向西转西南
能見度: 10公里
天空无云

TAF: CBBC 221238Z 2213/2301 VRB03KT 1/4SM FG VV002 TEMPO 2213/2218 3SM BR SCT003 FM221800 VRB03KT P6SM FEW005 FM222200 24005KT P6SM SKC RMK FCST BASED ON AUTO OBS. NXT FCST BY 221900Z

超过4000个机场的气象观测和天气预报(METAR&TAF报告)。

可查询的气象台以黄色和红色小点在地图上表示。

将鼠标移到小点上方,可查看气象台名称。

然后点击查看天气观测和预报。

如需切换地图:点击带黑十字的绿色按钮放大地图;点击带横线的绿色按钮缩小地图;或者点击绿色箭头查看邻近地区的地图。


METAR-TAF: